sensor_id;sensor_type;location;lat;lon;timestamp;P1;durP1;ratioP1;P2;durP2;ratioP2
69491;SDS011;56692;52.016;4.356;2023-04-06T00:01:53;18.03;;;8.37;;
69491;SDS011;56692;52.016;4.356;2023-04-06T00:04:19;16.08;;;7.75;;
69491;SDS011;56692;52.016;4.356;2023-04-06T00:06:46;16.42;;;7.40;;
69491;SDS011;56692;52.016;4.356;2023-04-06T00:09:11;21.97;;;8.23;;
69491;SDS011;56692;52.016;4.356;2023-04-06T00:11:37;16.05;;;7.55;;
69491;SDS011;56692;52.016;4.356;2023-04-06T00:14:03;16.00;;;7.17;;
69491;SDS011;56692;52.016;4.356;2023-04-06T00:16:28;16.37;;;7.83;;
69491;SDS011;56692;52.016;4.356;2023-04-06T00:18:54;15.35;;;7.45;;
69491;SDS011;56692;52.016;4.356;2023-04-06T00:21:20;14.87;;;7.10;;
69491;SDS011;56692;52.016;4.356;2023-04-06T00:23:45;16.63;;;7.35;;
69491;SDS011;56692;52.016;4.356;2023-04-06T00:26:11;15.50;;;7.90;;
69491;SDS011;56692;52.016;4.356;2023-04-06T00:28:37;18.83;;;7.15;;
69491;SDS011;56692;52.016;4.356;2023-04-06T00:31:03;14.30;;;6.72;;
69491;SDS011;56692;52.016;4.356;2023-04-06T00:33:29;15.30;;;6.93;;
69491;SDS011;56692;52.016;4.356;2023-04-06T00:35:55;12.73;;;6.90;;
69491;SDS011;56692;52.016;4.356;2023-04-06T00:38:21;14.40;;;6.40;;
69491;SDS011;56692;52.016;4.356;2023-04-06T00:40:47;14.50;;;6.05;;
69491;SDS011;56692;52.016;4.356;2023-04-06T00:43:13;13.63;;;6.40;;
69491;SDS011;56692;52.016;4.356;2023-04-06T00:45:39;14.90;;;6.18;;
69491;SDS011;56692;52.016;4.356;2023-04-06T00:48:06;12.10;;;6.13;;
69491;SDS011;56692;52.016;4.356;2023-04-06T00:50:33;12.70;;;6.55;;
69491;SDS011;56692;52.016;4.356;2023-04-06T00:53:00;14.43;;;6.55;;
69491;SDS011;56692;52.016;4.356;2023-04-06T00:55:29;12.80;;;5.33;;
69491;SDS011;56692;52.016;4.356;2023-04-06T00:57:55;10.83;;;5.73;;
69491;SDS011;56692;52.016;4.356;2023-04-06T01:00:23;10.98;;;4.85;;
69491;SDS011;56692;52.016;4.356;2023-04-06T01:02:49;14.18;;;4.68;;
69491;SDS011;56692;52.016;4.356;2023-04-06T01:05:15;12.60;;;5.77;;
69491;SDS011;56692;52.016;4.356;2023-04-06T01:07:41;10.50;;;5.00;;
69491;SDS011;56692;52.016;4.356;2023-04-06T01:10:07;8.88;;;4.78;;
69491;SDS011;56692;52.016;4.356;2023-04-06T01:12:33;9.65;;;4.72;;
69491;SDS011;56692;52.016;4.356;2023-04-06T01:14:58;8.73;;;4.63;;
69491;SDS011;56692;52.016;4.356;2023-04-06T01:17:25;11.85;;;4.38;;
69491;SDS011;56692;52.016;4.356;2023-04-06T01:19:50;9.57;;;4.75;;
69491;SDS011;56692;52.016;4.356;2023-04-06T01:22:18;9.23;;;4.47;;
69491;SDS011;56692;52.016;4.356;2023-04-06T01:24:44;8.97;;;5.00;;
69491;SDS011;56692;52.016;4.356;2023-04-06T01:27:11;9.98;;;5.00;;
69491;SDS011;56692;52.016;4.356;2023-04-06T01:29:38;9.55;;;4.70;;
69491;SDS011;56692;52.016;4.356;2023-04-06T01:32:06;9.23;;;4.28;;
69491;SDS011;56692;52.016;4.356;2023-04-06T01:34:32;11.88;;;3.95;;
69491;SDS011;56692;52.016;4.356;2023-04-06T01:36:58;10.43;;;4.67;;
69491;SDS011;56692;52.016;4.356;2023-04-06T01:39:24;9.35;;;4.38;;
69491;SDS011;56692;52.016;4.356;2023-04-06T01:41:50;12.30;;;5.00;;
69491;SDS011;56692;52.016;4.356;2023-04-06T01:44:16;9.83;;;3.97;;
69491;SDS011;56692;52.016;4.356;2023-04-06T01:46:43;8.20;;;4.30;;
69491;SDS011;56692;52.016;4.356;2023-04-06T01:49:09;8.00;;;4.53;;
69491;SDS011;56692;52.016;4.356;2023-04-06T01:51:35;10.10;;;4.03;;
69491;SDS011;56692;52.016;4.356;2023-04-06T01:54:00;9.57;;;3.90;;
69491;SDS011;56692;52.016;4.356;2023-04-06T01:56:26;8.77;;;4.03;;
69491;SDS011;56692;52.016;4.356;2023-04-06T01:58:52;10.27;;;4.57;;
69491;SDS011;56692;52.016;4.356;2023-04-06T02:01:17;8.88;;;3.97;;
69491;SDS011;56692;52.016;4.356;2023-04-06T02:03:43;6.23;;;3.43;;
69491;SDS011;56692;52.016;4.356;2023-04-06T02:06:09;9.02;;;4.70;;
69491;SDS011;56692;52.016;4.356;2023-04-06T02:08:35;7.73;;;3.53;;
69491;SDS011;56692;52.016;4.356;2023-04-06T02:11:00;9.03;;;4.40;;
69491;SDS011;56692;52.016;4.356;2023-04-06T02:13:26;7.80;;;3.67;;
69491;SDS011;56692;52.016;4.356;2023-04-06T02:15:51;9.40;;;3.60;;
69491;SDS011;56692;52.016;4.356;2023-04-06T02:18:17;7.78;;;3.92;;
69491;SDS011;56692;52.016;4.356;2023-04-06T02:20:43;11.57;;;4.77;;
69491;SDS011;56692;52.016;4.356;2023-04-06T02:23:09;9.75;;;4.93;;
69491;SDS011;56692;52.016;4.356;2023-04-06T02:25:35;11.68;;;4.28;;
69491;SDS011;56692;52.016;4.356;2023-04-06T02:28:01;11.60;;;4.03;;
69491;SDS011;56692;52.016;4.356;2023-04-06T02:30:27;9.85;;;4.30;;
69491;SDS011;56692;52.016;4.356;2023-04-06T02:32:54;9.32;;;4.25;;
69491;SDS011;56692;52.016;4.356;2023-04-06T02:35:19;10.53;;;4.50;;
69491;SDS011;56692;52.016;4.356;2023-04-06T02:37:45;13.05;;;4.82;;
69491;SDS011;56692;52.016;4.356;2023-04-06T02:40:11;7.50;;;3.53;;
69491;SDS011;56692;52.016;4.356;2023-04-06T02:42:38;9.18;;;3.88;;
69491;SDS011;56692;52.016;4.356;2023-04-06T02:45:05;9.52;;;3.97;;
69491;SDS011;56692;52.016;4.356;2023-04-06T02:47:31;8.10;;;4.15;;
69491;SDS011;56692;52.016;4.356;2023-04-06T02:49:56;7.37;;;3.70;;
69491;SDS011;56692;52.016;4.356;2023-04-06T02:52:22;9.65;;;4.85;;
69491;SDS011;56692;52.016;4.356;2023-04-06T02:54:48;10.63;;;4.27;;
69491;SDS011;56692;52.016;4.356;2023-04-06T02:57:13;12.32;;;5.40;;
69491;SDS011;56692;52.016;4.356;2023-04-06T02:59:39;11.17;;;4.37;;
69491;SDS011;56692;52.016;4.356;2023-04-06T03:02:05;9.43;;;4.07;;
69491;SDS011;56692;52.016;4.356;2023-04-06T03:04:30;10.90;;;4.20;;
69491;SDS011;56692;52.016;4.356;2023-04-06T03:06:56;9.13;;;4.30;;
69491;SDS011;56692;52.016;4.356;2023-04-06T03:09:21;8.73;;;4.32;;
69491;SDS011;56692;52.016;4.356;2023-04-06T03:11:47;10.30;;;5.40;;
69491;SDS011;56692;52.016;4.356;2023-04-06T03:14:13;9.03;;;4.80;;
69491;SDS011;56692;52.016;4.356;2023-04-06T03:16:39;9.55;;;4.68;;
69491;SDS011;56692;52.016;4.356;2023-04-06T03:19:05;10.50;;;4.53;;
69491;SDS011;56692;52.016;4.356;2023-04-06T03:21:31;10.60;;;4.63;;
69491;SDS011;56692;52.016;4.356;2023-04-06T03:23:56;11.20;;;4.93;;
69491;SDS011;56692;52.016;4.356;2023-04-06T03:26:22;10.10;;;5.40;;
69491;SDS011;56692;52.016;4.356;2023-04-06T03:28:47;10.77;;;5.17;;
69491;SDS011;56692;52.016;4.356;2023-04-06T03:31:13;9.02;;;4.75;;
69491;SDS011;56692;52.016;4.356;2023-04-06T03:33:39;11.77;;;5.83;;
69491;SDS011;56692;52.016;4.356;2023-04-06T03:36:05;11.80;;;5.22;;
69491;SDS011;56692;52.016;4.356;2023-04-06T03:38:31;10.60;;;5.25;;
69491;SDS011;56692;52.016;4.356;2023-04-06T03:40:57;10.63;;;5.07;;
69491;SDS011;56692;52.016;4.356;2023-04-06T03:43:23;10.75;;;5.03;;
69491;SDS011;56692;52.016;4.356;2023-04-06T03:45:48;14.70;;;5.20;;
69491;SDS011;56692;52.016;4.356;2023-04-06T03:48:14;9.82;;;5.43;;
69491;SDS011;56692;52.016;4.356;2023-04-06T03:50:40;12.32;;;5.82;;
69491;SDS011;56692;52.016;4.356;2023-04-06T03:53:06;9.57;;;5.20;;
69491;SDS011;56692;52.016;4.356;2023-04-06T03:55:32;12.45;;;4.97;;
69491;SDS011;56692;52.016;4.356;2023-04-06T03:57:57;15.13;;;4.80;;
69491;SDS011;56692;52.016;4.356;2023-04-06T04:00:23;11.52;;;5.05;;
69491;SDS011;56692;52.016;4.356;2023-04-06T04:02:48;11.30;;;5.40;;
69491;SDS011;56692;52.016;4.356;2023-04-06T04:05:14;9.95;;;6.03;;
69491;SDS011;56692;52.016;4.356;2023-04-06T04:07:40;11.87;;;5.13;;
69491;SDS011;56692;52.016;4.356;2023-04-06T04:10:06;11.15;;;6.05;;
69491;SDS011;56692;52.016;4.356;2023-04-06T04:12:32;11.00;;;5.38;;
69491;SDS011;56692;52.016;4.356;2023-04-06T04:14:57;10.77;;;5.37;;
69491;SDS011;56692;52.016;4.356;2023-04-06T04:17:24;11.67;;;5.33;;
69491;SDS011;56692;52.016;4.356;2023-04-06T04:19:50;13.02;;;5.13;;
69491;SDS011;56692;52.016;4.356;2023-04-06T04:22:15;12.60;;;6.13;;
69491;SDS011;56692;52.016;4.356;2023-04-06T04:24:41;11.97;;;5.53;;
69491;SDS011;56692;52.016;4.356;2023-04-06T04:27:07;12.70;;;6.43;;
69491;SDS011;56692;52.016;4.356;2023-04-06T04:29:32;10.30;;;5.27;;
69491;SDS011;56692;52.016;4.356;2023-04-06T04:31:58;12.77;;;5.85;;
69491;SDS011;56692;52.016;4.356;2023-04-06T04:34:24;11.60;;;6.03;;
69491;SDS011;56692;52.016;4.356;2023-04-06T04:36:50;10.75;;;4.85;;
69491;SDS011;56692;52.016;4.356;2023-04-06T04:39:16;10.45;;;5.30;;
69491;SDS011;56692;52.016;4.356;2023-04-06T04:41:42;11.13;;;6.10;;
69491;SDS011;56692;52.016;4.356;2023-04-06T04:44:08;11.50;;;5.90;;
69491;SDS011;56692;52.016;4.356;2023-04-06T04:46:34;10.63;;;5.10;;
69491;SDS011;56692;52.016;4.356;2023-04-06T04:48:59;10.30;;;5.43;;
69491;SDS011;56692;52.016;4.356;2023-04-06T04:51:25;12.00;;;6.18;;
69491;SDS011;56692;52.016;4.356;2023-04-06T04:53:51;14.40;;;5.90;;
69491;SDS011;56692;52.016;4.356;2023-04-06T04:56:17;12.55;;;5.65;;
69491;SDS011;56692;52.016;4.356;2023-04-06T04:58:43;17.73;;;6.05;;
69491;SDS011;56692;52.016;4.356;2023-04-06T05:01:08;11.87;;;6.00;;
69491;SDS011;56692;52.016;4.356;2023-04-06T05:03:34;10.18;;;5.35;;
69491;SDS011;56692;52.016;4.356;2023-04-06T05:06:03;10.55;;;5.15;;
69491;SDS011;56692;52.016;4.356;2023-04-06T05:08:29;12.48;;;5.60;;
69491;SDS011;56692;52.016;4.356;2023-04-06T05:10:55;10.47;;;4.90;;
69491;SDS011;56692;52.016;4.356;2023-04-06T05:13:20;11.37;;;4.87;;
69491;SDS011;56692;52.016;4.356;2023-04-06T05:15:46;11.98;;;4.85;;
69491;SDS011;56692;52.016;4.356;2023-04-06T05:18:13;8.75;;;5.00;;
69491;SDS011;56692;52.016;4.356;2023-04-06T05:20:38;27.20;;;6.77;;
69491;SDS011;56692;52.016;4.356;2023-04-06T05:23:04;25.60;;;6.63;;
69491;SDS011;56692;52.016;4.356;2023-04-06T05:25:30;16.83;;;3.70;;
69491;SDS011;56692;52.016;4.356;2023-04-06T05:27:56;16.95;;;5.05;;
69491;SDS011;56692;52.016;4.356;2023-04-06T05:30:22;10.60;;;3.73;;
69491;SDS011;56692;52.016;4.356;2023-04-06T05:32:48;19.90;;;4.30;;
69491;SDS011;56692;52.016;4.356;2023-04-06T05:35:14;14.73;;;4.72;;
69491;SDS011;56692;52.016;4.356;2023-04-06T05:37:40;9.67;;;3.47;;
69491;SDS011;56692;52.016;4.356;2023-04-06T05:40:06;8.35;;;3.58;;
69491;SDS011;56692;52.016;4.356;2023-04-06T05:42:39;12.27;;;3.97;;
69491;SDS011;56692;52.016;4.356;2023-04-06T05:45:08;10.85;;;3.95;;
69491;SDS011;56692;52.016;4.356;2023-04-06T05:47:36;10.53;;;3.50;;
69491;SDS011;56692;52.016;4.356;2023-04-06T05:50:02;14.00;;;3.03;;
69491;SDS011;56692;52.016;4.356;2023-04-06T05:52:28;11.35;;;3.33;;
69491;SDS011;56692;52.016;4.356;2023-04-06T05:54:54;9.20;;;3.50;;
69491;SDS011;56692;52.016;4.356;2023-04-06T05:57:19;7.20;;;2.80;;
69491;SDS011;56692;52.016;4.356;2023-04-06T05:59:45;8.00;;;2.70;;
69491;SDS011;56692;52.016;4.356;2023-04-06T06:02:11;10.23;;;2.67;;
69491;SDS011;56692;52.016;4.356;2023-04-06T06:04:37;11.52;;;2.80;;
69491;SDS011;56692;52.016;4.356;2023-04-06T06:07:03;10.10;;;3.27;;
69491;SDS011;56692;52.016;4.356;2023-04-06T06:09:28;8.88;;;3.45;;
69491;SDS011;56692;52.016;4.356;2023-04-06T06:11:54;8.37;;;3.10;;
69491;SDS011;56692;52.016;4.356;2023-04-06T06:14:20;7.72;;;2.90;;
69491;SDS011;56692;52.016;4.356;2023-04-06T06:16:47;9.05;;;2.53;;
69491;SDS011;56692;52.016;4.356;2023-04-06T06:19:13;6.63;;;2.47;;
69491;SDS011;56692;52.016;4.356;2023-04-06T06:21:38;12.67;;;2.23;;
69491;SDS011;56692;52.016;4.356;2023-04-06T06:24:05;5.75;;;2.20;;
69491;SDS011;56692;52.016;4.356;2023-04-06T06:26:31;8.98;;;2.53;;
69491;SDS011;56692;52.016;4.356;2023-04-06T06:28:56;9.73;;;2.60;;
69491;SDS011;56692;52.016;4.356;2023-04-06T06:31:22;7.50;;;2.92;;
69491;SDS011;56692;52.016;4.356;2023-04-06T06:33:48;7.67;;;2.57;;
69491;SDS011;56692;52.016;4.356;2023-04-06T06:36:17;9.10;;;2.60;;
69491;SDS011;56692;52.016;4.356;2023-04-06T06:38:43;8.00;;;2.20;;
69491;SDS011;56692;52.016;4.356;2023-04-06T06:41:10;6.75;;;2.38;;
69491;SDS011;56692;52.016;4.356;2023-04-06T06:43:37;6.75;;;2.25;;
69491;SDS011;56692;52.016;4.356;2023-04-06T06:46:03;9.10;;;2.27;;
69491;SDS011;56692;52.016;4.356;2023-04-06T06:48:30;7.75;;;1.90;;
69491;SDS011;56692;52.016;4.356;2023-04-06T06:50:56;9.38;;;2.35;;
69491;SDS011;56692;52.016;4.356;2023-04-06T06:53:22;5.67;;;2.57;;
69491;SDS011;56692;52.016;4.356;2023-04-06T06:55:48;7.20;;;1.67;;
69491;SDS011;56692;52.016;4.356;2023-04-06T06:58:14;6.15;;;2.60;;
69491;SDS011;56692;52.016;4.356;2023-04-06T07:00:43;7.15;;;1.85;;
69491;SDS011;56692;52.016;4.356;2023-04-06T07:03:08;6.70;;;1.73;;
69491;SDS011;56692;52.016;4.356;2023-04-06T07:05:34;6.50;;;1.98;;
69491;SDS011;56692;52.016;4.356;2023-04-06T07:08:00;4.50;;;1.83;;
69491;SDS011;56692;52.016;4.356;2023-04-06T07:10:26;6.45;;;2.72;;
69491;SDS011;56692;52.016;4.356;2023-04-06T07:12:52;6.15;;;1.85;;
69491;SDS011;56692;52.016;4.356;2023-04-06T07:15:17;5.40;;;1.43;;
69491;SDS011;56692;52.016;4.356;2023-04-06T07:17:43;6.05;;;1.75;;
69491;SDS011;56692;52.016;4.356;2023-04-06T07:20:12;7.70;;;1.95;;
69491;SDS011;56692;52.016;4.356;2023-04-06T07:22:39;5.83;;;1.63;;
69491;SDS011;56692;52.016;4.356;2023-04-06T07:25:05;5.07;;;1.65;;
69491;SDS011;56692;52.016;4.356;2023-04-06T07:27:31;6.97;;;1.98;;
69491;SDS011;56692;52.016;4.356;2023-04-06T07:29:57;5.47;;;1.80;;
69491;SDS011;56692;52.016;4.356;2023-04-06T07:32:23;7.07;;;1.73;;
69491;SDS011;56692;52.016;4.356;2023-04-06T07:34:48;5.35;;;2.30;;
69491;SDS011;56692;52.016;4.356;2023-04-06T07:37:14;4.40;;;1.55;;
69491;SDS011;56692;52.016;4.356;2023-04-06T07:39:40;5.57;;;1.40;;
69491;SDS011;56692;52.016;4.356;2023-04-06T07:42:06;5.75;;;1.48;;
69491;SDS011;56692;52.016;4.356;2023-04-06T07:44:33;5.60;;;1.40;;
69491;SDS011;56692;52.016;4.356;2023-04-06T07:46:59;6.22;;;1.58;;
69491;SDS011;56692;52.016;4.356;2023-04-06T07:49:25;3.60;;;1.40;;
69491;SDS011;56692;52.016;4.356;2023-04-06T07:51:51;5.53;;;1.50;;
69491;SDS011;56692;52.016;4.356;2023-04-06T07:54:17;3.80;;;1.10;;
69491;SDS011;56692;52.016;4.356;2023-04-06T07:56:42;4.60;;;1.88;;
69491;SDS011;56692;52.016;4.356;2023-04-06T07:59:08;5.33;;;1.50;;
69491;SDS011;56692;52.016;4.356;2023-04-06T08:01:36;3.42;;;1.23;;
69491;SDS011;56692;52.016;4.356;2023-04-06T08:04:02;6.88;;;1.42;;
69491;SDS011;56692;52.016;4.356;2023-04-06T08:06:28;6.05;;;1.20;;
69491;SDS011;56692;52.016;4.356;2023-04-06T08:08:54;5.03;;;1.77;;
69491;SDS011;56692;52.016;4.356;2023-04-06T08:11:20;3.08;;;1.17;;
69491;SDS011;56692;52.016;4.356;2023-04-06T08:13:46;4.90;;;1.48;;
69491;SDS011;56692;52.016;4.356;2023-04-06T08:16:12;4.57;;;1.50;;
69491;SDS011;56692;52.016;4.356;2023-04-06T08:18:38;3.60;;;1.40;;
69491;SDS011;56692;52.016;4.356;2023-04-06T08:21:03;4.25;;;1.48;;
69491;SDS011;56692;52.016;4.356;2023-04-06T08:23:29;3.97;;;1.77;;
69491;SDS011;56692;52.016;4.356;2023-04-06T08:25:55;5.05;;;1.38;;
69491;SDS011;56692;52.016;4.356;2023-04-06T08:28:21;2.90;;;1.00;;
69491;SDS011;56692;52.016;4.356;2023-04-06T08:30:47;5.33;;;2.20;;
69491;SDS011;56692;52.016;4.356;2023-04-06T08:33:12;5.45;;;1.17;;
69491;SDS011;56692;52.016;4.356;2023-04-06T08:35:38;4.47;;;1.13;;
69491;SDS011;56692;52.016;4.356;2023-04-06T08:38:05;4.05;;;1.35;;
69491;SDS011;56692;52.016;4.356;2023-04-06T08:40:35;6.27;;;0.87;;
69491;SDS011;56692;52.016;4.356;2023-04-06T08:43:09;4.75;;;1.10;;
69491;SDS011;56692;52.016;4.356;2023-04-06T08:45:38;4.07;;;1.40;;
69491;SDS011;56692;52.016;4.356;2023-04-06T08:48:05;2.50;;;0.70;;
69491;SDS011;56692;52.016;4.356;2023-04-06T08:50:35;3.20;;;1.50;;
69491;SDS011;56692;52.016;4.356;2023-04-06T08:53:01;3.53;;;1.10;;
69491;SDS011;56692;52.016;4.356;2023-04-06T08:55:27;5.88;;;1.00;;
69491;SDS011;56692;52.016;4.356;2023-04-06T08:57:52;4.45;;;2.13;;
69491;SDS011;56692;52.016;4.356;2023-04-06T09:00:20;4.00;;;1.27;;
69491;SDS011;56692;52.016;4.356;2023-04-06T09:02:46;5.17;;;0.93;;
69491;SDS011;56692;52.016;4.356;2023-04-06T09:05:14;2.92;;;0.73;;
69491;SDS011;56692;52.016;4.356;2023-04-06T09:07:40;3.40;;;1.05;;
69491;SDS011;56692;52.016;4.356;2023-04-06T09:10:06;4.13;;;1.13;;
69491;SDS011;56692;52.016;4.356;2023-04-06T09:12:32;4.57;;;1.00;;
69491;SDS011;56692;52.016;4.356;2023-04-06T09:14:59;2.60;;;0.80;;
69491;SDS011;56692;52.016;4.356;2023-04-06T09:17:26;5.05;;;1.02;;
69491;SDS011;56692;52.016;4.356;2023-04-06T09:19:58;2.88;;;0.77;;
69491;SDS011;56692;52.016;4.356;2023-04-06T09:22:25;3.08;;;0.90;;
69491;SDS011;56692;52.016;4.356;2023-04-06T09:24:59;2.60;;;0.83;;
69491;SDS011;56692;52.016;4.356;2023-04-06T09:32:47;2.70;;;0.70;;
69491;SDS011;56692;52.016;4.356;2023-04-06T09:35:14;3.47;;;0.80;;
69491;SDS011;56692;52.016;4.356;2023-04-06T09:37:41;4.70;;;1.10;;
69491;SDS011;56692;52.016;4.356;2023-04-06T09:40:08;2.20;;;0.77;;
69491;SDS011;56692;52.016;4.356;2023-04-06T09:42:34;1.75;;;0.85;;
69491;SDS011;56692;52.016;4.356;2023-04-06T09:45:00;4.03;;;0.90;;
69491;SDS011;56692;52.016;4.356;2023-04-06T09:47:27;5.07;;;0.85;;
69491;SDS011;56692;52.016;4.356;2023-04-06T09:49:58;3.13;;;0.85;;
69491;SDS011;56692;52.016;4.356;2023-04-06T09:52:58;3.85;;;0.95;;
69491;SDS011;56692;52.016;4.356;2023-04-06T09:55:23;6.72;;;1.20;;
69491;SDS011;56692;52.016;4.356;2023-04-06T09:58:04;3.13;;;0.97;;
69491;SDS011;56692;52.016;4.356;2023-04-06T10:00:35;4.95;;;1.45;;
69491;SDS011;56692;52.016;4.356;2023-04-06T10:03:26;4.10;;;0.80;;
69491;SDS011;56692;52.016;4.356;2023-04-06T10:05:59;7.80;;;1.00;;
69491;SDS011;56692;52.016;4.356;2023-04-06T10:08:29;1.92;;;0.65;;
69491;SDS011;56692;52.016;4.356;2023-04-06T10:10:58;3.43;;;1.03;;
69491;SDS011;56692;52.016;4.356;2023-04-06T10:13:25;4.88;;;1.25;;
69491;SDS011;56692;52.016;4.356;2023-04-06T10:15:52;4.30;;;0.90;;
69491;SDS011;56692;52.016;4.356;2023-04-06T10:18:19;2.90;;;1.08;;
69491;SDS011;56692;52.016;4.356;2023-04-06T10:20:53;4.10;;;0.98;;
69491;SDS011;56692;52.016;4.356;2023-04-06T10:23:27;3.17;;;0.80;;
69491;SDS011;56692;52.016;4.356;2023-04-06T10:25:58;3.72;;;1.00;;
69491;SDS011;56692;52.016;4.356;2023-04-06T10:28:25;4.20;;;1.15;;
69491;SDS011;56692;52.016;4.356;2023-04-06T10:30:59;2.55;;;0.90;;
69491;SDS011;56692;52.016;4.356;2023-04-06T10:33:26;2.58;;;1.00;;
69491;SDS011;56692;52.016;4.356;2023-04-06T10:35:52;3.67;;;0.73;;
69491;SDS011;56692;52.016;4.356;2023-04-06T10:38:20;4.68;;;0.82;;
69491;SDS011;56692;52.016;4.356;2023-04-06T10:40:47;7.65;;;0.95;;
69491;SDS011;56692;52.016;4.356;2023-04-06T10:43:21;7.95;;;0.90;;
69491;SDS011;56692;52.016;4.356;2023-04-06T10:45:57;5.38;;;0.88;;
69491;SDS011;56692;52.016;4.356;2023-04-06T10:48:24;2.80;;;0.60;;
69491;SDS011;56692;52.016;4.356;2023-04-06T10:51:12;2.40;;;0.70;;
69491;SDS011;56692;52.016;4.356;2023-04-06T10:53:42;2.97;;;1.17;;
69491;SDS011;56692;52.016;4.356;2023-04-06T10:56:09;2.60;;;0.70;;
69491;SDS011;56692;52.016;4.356;2023-04-06T10:58:37;4.75;;;0.77;;
69491;SDS011;56692;52.016;4.356;2023-04-06T11:01:03;2.17;;;0.90;;
69491;SDS011;56692;52.016;4.356;2023-04-06T11:03:30;3.22;;;0.73;;
69491;SDS011;56692;52.016;4.356;2023-04-06T11:05:57;2.10;;;0.88;;
69491;SDS011;56692;52.016;4.356;2023-04-06T11:08:32;2.35;;;1.00;;
69491;SDS011;56692;52.016;4.356;2023-04-06T11:11:05;2.67;;;1.00;;
69491;SDS011;56692;52.016;4.356;2023-04-06T11:16:30;2.28;;;1.02;;
69491;SDS011;56692;52.016;4.356;2023-04-06T11:19:00;5.70;;;1.10;;
69491;SDS011;56692;52.016;4.356;2023-04-06T11:21:37;2.20;;;0.63;;
69491;SDS011;56692;52.016;4.356;2023-04-06T11:26:57;2.37;;;0.50;;
69491;SDS011;56692;52.016;4.356;2023-04-06T11:29:24;2.33;;;0.95;;
69491;SDS011;56692;52.016;4.356;2023-04-06T11:31:52;2.30;;;0.75;;
69491;SDS011;56692;52.016;4.356;2023-04-06T11:34:19;1.83;;;0.98;;
69491;SDS011;56692;52.016;4.356;2023-04-06T11:36:47;2.33;;;1.05;;
69491;SDS011;56692;52.016;4.356;2023-04-06T11:39:21;3.93;;;0.80;;
69491;SDS011;56692;52.016;4.356;2023-04-06T11:41:51;2.10;;;0.50;;
69491;SDS011;56692;52.016;4.356;2023-04-06T11:46:59;2.13;;;0.90;;
69491;SDS011;56692;52.016;4.356;2023-04-06T11:49:26;3.15;;;0.70;;
69491;SDS011;56692;52.016;4.356;2023-04-06T11:51:53;2.30;;;0.80;;
69491;SDS011;56692;52.016;4.356;2023-04-06T11:57:16;3.65;;;0.73;;
69491;SDS011;56692;52.016;4.356;2023-04-06T11:59:42;2.75;;;0.98;;
69491;SDS011;56692;52.016;4.356;2023-04-06T12:02:08;2.72;;;0.98;;
69491;SDS011;56692;52.016;4.356;2023-04-06T12:04:34;3.90;;;1.00;;
69491;SDS011;56692;52.016;4.356;2023-04-06T12:07:00;2.10;;;0.60;;
69491;SDS011;56692;52.016;4.356;2023-04-06T12:09:26;2.83;;;1.20;;
69491;SDS011;56692;52.016;4.356;2023-04-06T12:11:52;2.40;;;1.00;;
69491;SDS011;56692;52.016;4.356;2023-04-06T12:14:17;2.13;;;0.80;;
69491;SDS011;56692;52.016;4.356;2023-04-06T12:16:43;2.45;;;1.17;;
69491;SDS011;56692;52.016;4.356;2023-04-06T12:19:09;2.03;;;1.00;;
69491;SDS011;56692;52.016;4.356;2023-04-06T12:21:34;3.08;;;1.63;;
69491;SDS011;56692;52.016;4.356;2023-04-06T12:24:02;2.00;;;1.10;;
69491;SDS011;56692;52.016;4.356;2023-04-06T12:26:29;2.97;;;0.93;;
69491;SDS011;56692;52.016;4.356;2023-04-06T12:28:55;2.22;;;1.10;;
69491;SDS011;56692;52.016;4.356;2023-04-06T12:31:21;4.40;;;1.65;;
69491;SDS011;56692;52.016;4.356;2023-04-06T12:33:51;2.80;;;1.38;;
69491;SDS011;56692;52.016;4.356;2023-04-06T12:36:17;2.72;;;1.88;;
69491;SDS011;56692;52.016;4.356;2023-04-06T12:38:45;3.73;;;1.50;;
69491;SDS011;56692;52.016;4.356;2023-04-06T12:41:12;2.50;;;1.55;;
69491;SDS011;56692;52.016;4.356;2023-04-06T12:43:41;2.95;;;1.35;;
69491;SDS011;56692;52.016;4.356;2023-04-06T12:46:08;4.40;;;1.23;;
69491;SDS011;56692;52.016;4.356;2023-04-06T12:48:34;3.95;;;1.55;;
69491;SDS011;56692;52.016;4.356;2023-04-06T12:51:04;3.00;;;2.00;;
69491;SDS011;56692;52.016;4.356;2023-04-06T12:53:31;2.92;;;1.92;;
69491;SDS011;56692;52.016;4.356;2023-04-06T12:55:57;3.03;;;2.35;;
69491;SDS011;56692;52.016;4.356;2023-04-06T12:58:24;3.10;;;2.05;;
69491;SDS011;56692;52.016;4.356;2023-04-06T13:00:51;3.43;;;2.60;;
69491;SDS011;56692;52.016;4.356;2023-04-06T13:03:18;4.50;;;2.90;;
69491;SDS011;56692;52.016;4.356;2023-04-06T13:05:47;4.70;;;2.55;;
69491;SDS011;56692;52.016;4.356;2023-04-06T13:08:14;4.93;;;3.50;;
69491;SDS011;56692;52.016;4.356;2023-04-06T13:10:44;5.40;;;3.75;;
69491;SDS011;56692;52.016;4.356;2023-04-06T13:13:14;4.10;;;3.70;;
69491;SDS011;56692;52.016;4.356;2023-04-06T13:15:40;5.47;;;4.10;;
69491;SDS011;56692;52.016;4.356;2023-04-06T13:18:06;9.30;;;8.40;;
69491;SDS011;56692;52.016;4.356;2023-04-06T13:20:33;10.27;;;9.32;;
69491;SDS011;56692;52.016;4.356;2023-04-06T13:22:59;16.20;;;13.93;;
69491;SDS011;56692;52.016;4.356;2023-04-06T13:25:24;11.63;;;10.63;;
69491;SDS011;56692;52.016;4.356;2023-04-06T13:27:50;9.02;;;8.18;;
69491;SDS011;56692;52.016;4.356;2023-04-06T13:30:16;6.07;;;5.27;;
69491;SDS011;56692;52.016;4.356;2023-04-06T13:32:42;4.73;;;4.33;;
69491;SDS011;56692;52.016;4.356;2023-04-06T13:35:08;5.25;;;4.75;;
69491;SDS011;56692;52.016;4.356;2023-04-06T13:37:34;4.53;;;4.13;;
69491;SDS011;56692;52.016;4.356;2023-04-06T13:40:04;5.00;;;3.55;;
69491;SDS011;56692;52.016;4.356;2023-04-06T13:42:30;4.10;;;3.35;;
69491;SDS011;56692;52.016;4.356;2023-04-06T13:44:57;3.90;;;3.47;;
69491;SDS011;56692;52.016;4.356;2023-04-06T13:47:23;3.53;;;3.03;;
69491;SDS011;56692;52.016;4.356;2023-04-06T13:49:55;3.80;;;3.00;;
69491;SDS011;56692;52.016;4.356;2023-04-06T13:52:21;6.88;;;2.97;;
69491;SDS011;56692;52.016;4.356;2023-04-06T13:54:47;6.10;;;2.80;;
69491;SDS011;56692;52.016;4.356;2023-04-06T13:57:13;5.78;;;3.30;;
69491;SDS011;56692;52.016;4.356;2023-04-06T13:59:39;4.20;;;2.80;;
69491;SDS011;56692;52.016;4.356;2023-04-06T14:02:06;3.80;;;2.07;;
69491;SDS011;56692;52.016;4.356;2023-04-06T14:04:33;3.03;;;2.53;;
69491;SDS011;56692;52.016;4.356;2023-04-06T14:07:00;3.63;;;2.95;;
69491;SDS011;56692;52.016;4.356;2023-04-06T14:09:26;4.82;;;2.47;;
69491;SDS011;56692;52.016;4.356;2023-04-06T14:11:53;3.73;;;2.20;;
69491;SDS011;56692;52.016;4.356;2023-04-06T14:14:20;2.80;;;1.90;;
69491;SDS011;56692;52.016;4.356;2023-04-06T14:16:46;3.97;;;1.95;;
69491;SDS011;56692;52.016;4.356;2023-04-06T14:19:13;2.92;;;1.75;;
69491;SDS011;56692;52.016;4.356;2023-04-06T14:21:41;3.75;;;1.90;;
69491;SDS011;56692;52.016;4.356;2023-04-06T14:24:08;10.90;;;2.00;;
69491;SDS011;56692;52.016;4.356;2023-04-06T14:26:35;4.70;;;1.60;;
69491;SDS011;56692;52.016;4.356;2023-04-06T14:29:01;5.47;;;2.13;;
69491;SDS011;56692;52.016;4.356;2023-04-06T14:31:27;4.28;;;1.52;;
69491;SDS011;56692;52.016;4.356;2023-04-06T14:33:53;4.18;;;1.65;;
69491;SDS011;56692;52.016;4.356;2023-04-06T14:36:19;3.37;;;1.60;;
69491;SDS011;56692;52.016;4.356;2023-04-06T14:38:45;4.32;;;1.38;;
69491;SDS011;56692;52.016;4.356;2023-04-06T14:41:17;2.15;;;1.30;;
69491;SDS011;56692;52.016;4.356;2023-04-06T14:43:44;2.55;;;1.63;;
69491;SDS011;56692;52.016;4.356;2023-04-06T14:46:12;2.10;;;1.40;;
69491;SDS011;56692;52.016;4.356;2023-04-06T14:48:38;2.10;;;1.30;;
69491;SDS011;56692;52.016;4.356;2023-04-06T14:51:04;2.05;;;1.20;;
69491;SDS011;56692;52.016;4.356;2023-04-06T14:53:30;2.53;;;1.67;;
69491;SDS011;56692;52.016;4.356;2023-04-06T14:55:55;2.83;;;1.57;;
69491;SDS011;56692;52.016;4.356;2023-04-06T14:58:22;2.50;;;1.83;;